Terminal Aerodrome Forecast
Issued by NWS

Home | Current Version | Previous Version | Text Only | Print | Product List | Glossary On
Versions: 1 2 3 4 5 6 7 8 9 10 11 12 13 14
000
FTUS42 KGSP 222320
TAFHKY
TAF
KHKY 222320Z 2300/2324 02005KT P6SM BKN060 OVC250
      TEMPO 2300/2303 BKN008 OVC060
     FM230300 02003KT 4SM BR OVC003
     FM231000 00000KT 1/2SM FG BKN003
     FM231400 00000KT P6SM BKN008
     FM231700 22003KT P6SM BKN040
     FM232200 18004KT P6SM SCT150=

USA.gov is the U.S. government's official web portal to all federal, state and local government web resources and services.